Time;durP1;ratioP1;P1;durP2;ratioP2;P2;SDS_P1;SDS_P2;PMS_P1;PMS_P2;Temp;Humidity;BMP_temperature;BMP_pressure;BME280_temperature;BME280_humidity;BME280_pressure;Samples;Min_cycle;Max_cycle;Signal;HPM_P1;HPM_P2
2023/10/19 00:00:19;;;;;;;28.00;25.80;;;;;;;;;;5050374;28;20501;-78
2023/10/19 00:02:47;;;;;;;29.03;26.83;;;;;;;;;;5049942;28;20925;-79
2023/10/19 00:05:16;;;;;;;28.90;26.80;;;;;;;;;;5049737;28;20428;-78
2023/10/19 00:07:42;;;;;;;28.10;25.90;;;;;;;;;;5050587;28;20523;-77
2023/10/19 00:10:14;;;;;;;29.33;26.83;;;;;;;;;;5050256;28;20433;-78
2023/10/19 00:12:41;;;;;;;28.70;26.60;;;;;;;;;;5050627;28;20928;-78
2023/10/19 00:15:11;;;;;;;28.90;26.53;;;;;;;;;;5049721;28;20431;-78
2023/10/19 00:17:38;;;;;;;27.40;25.50;;;;;;;;;;5050690;28;20809;-78
2023/10/19 00:20:28;;;;;;;28.30;26.20;;;;;;;;;;5049803;28;20429;-78
2023/10/19 00:22:55;;;;;;;29.37;27.03;;;;;;;;;;5050420;28;20405;-78
2023/10/19 00:25:24;;;;;;;28.80;26.50;;;;;;;;;;5049962;28;20426;-77
2023/10/19 00:27:50;;;;;;;28.60;26.60;;;;;;;;;;5050448;28;20476;-78
2023/10/19 00:30:23;;;;;;;28.70;26.37;;;;;;;;;;5049900;28;20466;-78
2023/10/19 00:32:52;;;;;;;29.27;26.77;;;;;;;;;;5050390;28;20434;-77
2023/10/19 00:35:28;;;;;;;29.67;27.37;;;;;;;;;;5050034;28;20453;-78
2023/10/19 00:38:12;;;;;;;30.00;27.70;;;;;;;;;;5050429;28;20514;-77
2023/10/19 00:40:40;;;;;;;29.20;27.10;;;;;;;;;;5050428;28;20437;-78
2023/10/19 00:43:10;;;;;;;29.13;26.97;;;;;;;;;;5050316;28;20433;-77
2023/10/19 00:45:39;;;;;;;28.73;26.53;;;;;;;;;;5055825;28;20445;-78
2023/10/19 00:48:11;;;;;;;30.50;28.10;;;;;;;;;;5070148;28;20527;-79
2023/10/19 00:50:38;;;;;;;30.53;28.13;;;;;;;;;;5070416;28;20403;-77
2023/10/19 00:53:08;;;;;;;30.70;28.20;;;;;;;;;;5054709;28;20520;-78
2023/10/19 00:55:36;;;;;;;31.00;28.57;;;;;;;;;;5049712;28;20444;-79
2023/10/19 00:58:09;;;;;;;26.40;24.50;;;;;;;;;;5050025;28;20493;-78
2023/10/19 01:00:43;;;;;;;30.60;28.30;;;;;;;;;;5050054;28;20405;-78
2023/10/19 01:03:16;;;;;;;30.23;27.90;;;;;;;;;;5049999;28;20410;-77
2023/10/19 01:05:48;;;;;;;32.10;29.57;;;;;;;;;;5049286;28;20514;-78
2023/10/19 01:08:23;;;;;;;31.43;28.87;;;;;;;;;;5049146;28;20521;-79
2023/10/19 01:10:52;;;;;;;33.70;30.50;;;;;;;;;;5049628;28;20473;-77
2023/10/19 01:13:19;;;;;;;32.87;30.37;;;;;;;;;;5049856;28;20540;-78
2023/10/19 01:15:49;;;;;;;30.83;28.43;;;;;;;;;;5049229;28;20429;-78
2023/10/19 01:18:17;;;;;;;30.53;28.30;;;;;;;;;;5049477;28;20876;-79
2023/10/19 01:20:50;;;;;;;31.87;29.10;;;;;;;;;;5049310;28;20417;-77
2023/10/19 01:23:25;;;;;;;34.40;31.37;;;;;;;;;;5049796;28;20436;-78
2023/10/19 01:25:59;;;;;;;33.30;30.60;;;;;;;;;;5049103;28;20515;-78
2023/10/19 01:28:28;;;;;;;34.00;31.20;;;;;;;;;;5049279;28;20525;-79
2023/10/19 01:30:55;;;;;;;34.87;32.00;;;;;;;;;;5050400;28;20446;-78
2023/10/19 01:33:24;;;;;;;32.07;29.60;;;;;;;;;;5053359;28;20429;-78
2023/10/19 01:38:37;;;;;;;32.87;30.27;;;;;;;;;;5053067;28;20412;-78
2023/10/19 01:41:07;;;;;;;35.00;32.10;;;;;;;;;;5053046;28;20899;-78
2023/10/19 01:43:34;;;;;;;34.23;31.40;;;;;;;;;;5053448;28;20503;-78
2023/10/19 01:46:04;;;;;;;35.77;32.77;;;;;;;;;;5052287;28;20528;-78
2023/10/19 01:48:33;;;;;;;34.60;31.80;;;;;;;;;;5053121;28;20449;-79
2023/10/19 01:51:00;;;;;;;36.43;33.20;;;;;;;;;;5053030;28;20498;-77
2023/10/19 01:53:27;;;;;;;36.67;33.30;;;;;;;;;;5053316;28;20463;-78
2023/10/19 01:55:58;;;;;;;33.77;30.97;;;;;;;;;;5052392;28;20438;-79
2023/10/19 01:58:26;;;;;;;36.90;33.80;;;;;;;;;;5052829;28;20502;-79
2023/10/19 02:00:55;;;;;;;36.37;33.00;;;;;;;;;;5052959;28;20437;-78
2023/10/19 02:03:22;;;;;;;37.10;34.00;;;;;;;;;;5052305;28;20517;-77
2023/10/19 02:05:50;;;;;;;37.87;34.93;;;;;;;;;;5052277;28;20418;-78
2023/10/19 02:08:19;;;;;;;38.07;34.90;;;;;;;;;;5053149;28;20499;-77
2023/10/19 02:10:48;;;;;;;43.03;38.83;;;;;;;;;;5054597;28;20445;-78
2023/10/19 02:13:16;;;;;;;37.13;34.03;;;;;;;;;;5072489;28;20428;-79
2023/10/19 02:15:43;;;;;;;40.57;36.97;;;;;;;;;;5072003;28;20881;-78
2023/10/19 02:18:10;;;;;;;37.33;34.37;;;;;;;;;;5072233;28;20454;-78
2023/10/19 02:20:40;;;;;;;41.93;38.07;;;;;;;;;;5072701;28;20416;-78
2023/10/19 02:23:07;;;;;;;40.00;36.70;;;;;;;;;;5072262;28;20854;-79
2023/10/19 02:25:36;;;;;;;39.63;36.20;;;;;;;;;;5072183;28;20452;-78
2023/10/19 02:28:04;;;;;;;40.23;36.73;;;;;;;;;;5072519;28;20469;-77
2023/10/19 02:30:34;;;;;;;39.57;36.43;;;;;;;;;;5072793;28;20499;-78
2023/10/19 02:33:00;;;;;;;37.27;34.20;;;;;;;;;;5072246;28;20454;-79
2023/10/19 02:35:28;;;;;;;39.90;36.80;;;;;;;;;;5071223;28;20465;-78
2023/10/19 02:37:55;;;;;;;40.57;37.60;;;;;;;;;;5072265;28;20497;-78
2023/10/19 02:40:24;;;;;;;42.17;38.70;;;;;;;;;;5072416;28;20431;-78
2023/10/19 02:42:53;;;;;;;37.20;34.50;;;;;;;;;;5072123;28;20450;-79
2023/10/19 02:45:20;;;;;;;42.43;39.03;;;;;;;;;;5071301;28;20979;-77
2023/10/19 02:47:47;;;;;;;40.47;37.23;;;;;;;;;;5072450;28;20513;-78
2023/10/19 02:50:16;;;;;;;38.67;35.73;;;;;;;;;;5072073;28;20503;-78
2023/10/19 02:52:43;;;;;;;39.67;36.77;;;;;;;;;;5071977;28;20424;-78
2023/10/19 02:55:10;;;;;;;34.63;32.33;;;;;;;;;;5071438;28;20497;-77
2023/10/19 02:57:37;;;;;;;36.93;34.20;;;;;;;;;;5072046;28;20474;-79
2023/10/19 03:00:08;;;;;;;35.23;32.87;;;;;;;;;;5071718;28;20485;-78
2023/10/19 03:02:36;;;;;;;38.83;35.97;;;;;;;;;;5071700;28;20903;-79
2023/10/19 03:05:12;;;;;;;36.03;33.70;;;;;;;;;;5071044;28;20492;-77
2023/10/19 03:07:39;;;;;;;37.30;34.70;;;;;;;;;;5070992;28;21020;-79
2023/10/19 03:10:06;;;;;;;36.93;34.47;;;;;;;;;;5071625;28;20540;-78
2023/10/19 03:12:33;;;;;;;37.17;34.73;;;;;;;;;;5071730;28;20441;-78
2023/10/19 03:15:01;;;;;;;37.70;34.93;;;;;;;;;;5070931;28;20968;-79
2023/10/19 03:17:29;;;;;;;36.00;33.70;;;;;;;;;;5071863;28;20469;-78
2023/10/19 03:19:57;;;;;;;36.80;34.37;;;;;;;;;;5071821;28;20544;-78
2023/10/19 03:22:27;;;;;;;36.53;33.73;;;;;;;;;;5071395;28;20549;-80
2023/10/19 03:25:22;;;;;;;36.37;33.97;;;;;;;;;;5070939;28;20469;-78
2023/10/19 03:27:46;;;;;;;36.30;33.73;;;;;;;;;;5070579;28;20456;-78
2023/10/19 03:30:16;;;;;;;38.33;35.80;;;;;;;;;;5071444;28;20420;-78
2023/10/19 03:32:43;;;;;;;38.13;35.43;;;;;;;;;;5071067;28;20430;-78
2023/10/19 03:35:15;;;;;;;40.37;37.50;;;;;;;;;;5070557;28;20423;-78
2023/10/19 03:37:47;;;;;;;39.47;36.87;;;;;;;;;;5070952;28;20469;-78
2023/10/19 03:40:20;;;;;;;39.80;37.00;;;;;;;;;;5070958;28;20926;-78
2023/10/19 03:42:47;;;;;;;42.07;39.00;;;;;;;;;;5070592;28;20527;-77
2023/10/19 03:45:14;;;;;;;40.80;38.20;;;;;;;;;;5070326;28;20576;-79
2023/10/19 03:47:43;;;;;;;43.30;40.20;;;;;;;;;;5070775;28;20461;-79
2023/10/19 03:50:14;;;;;;;42.57;39.70;;;;;;;;;;5070812;28;20454;-78
2023/10/19 03:52:41;;;;;;;39.77;37.07;;;;;;;;;;5071053;28;20438;-79
2023/10/19 03:55:14;;;;;;;40.83;38.07;;;;;;;;;;5069695;28;20442;-78
2023/10/19 03:57:46;;;;;;;41.43;38.83;;;;;;;;;;5070638;28;20465;-77
2023/10/19 04:00:16;;;;;;;40.50;37.60;;;;;;;;;;5070412;28;20533;-79
2023/10/19 04:02:43;;;;;;;40.13;37.33;;;;;;;;;;5070147;28;20463;-78
2023/10/19 04:05:20;;;;;;;40.30;37.60;;;;;;;;;;5070290;28;20460;-79
2023/10/19 04:07:49;;;;;;;39.87;37.07;;;;;;;;;;5070785;28;20569;-79
2023/10/19 04:10:30;;;;;;;41.90;39.10;;;;;;;;;;5070981;28;20454;-77
2023/10/19 04:13:00;;;;;;;40.97;38.10;;;;;;;;;;5069899;28;20465;-79
2023/10/19 04:15:33;;;;;;;40.17;37.10;;;;;;;;;;5070008;28;20777;-78
2023/10/19 04:18:00;;;;;;;40.23;37.67;;;;;;;;;;5070488;28;20466;-78
2023/10/19 04:20:29;;;;;;;40.53;37.83;;;;;;;;;;5070133;28;20938;-78
2023/10/19 04:22:58;;;;;;;40.07;37.17;;;;;;;;;;5070443;28;20461;-78
2023/10/19 04:25:27;;;;;;;39.40;36.70;;;;;;;;;;5069775;28;20524;-78
2023/10/19 04:27:56;;;;;;;41.33;38.33;;;;;;;;;;5070248;28;20441;-78
2023/10/19 04:30:24;;;;;;;39.70;36.87;;;;;;;;;;5070383;28;20843;-77
2023/10/19 04:32:52;;;;;;;39.87;37.10;;;;;;;;;;5070452;28;20453;-77
2023/10/19 04:35:22;;;;;;;40.20;37.43;;;;;;;;;;5069648;28;20446;-78
2023/10/19 04:37:50;;;;;;;42.30;39.10;;;;;;;;;;5070012;28;20475;-78
2023/10/19 04:40:17;;;;;;;39.70;37.00;;;;;;;;;;5069614;28;20485;-79
2023/10/19 04:42:46;;;;;;;41.07;38.30;;;;;;;;;;5069963;28;20891;-77
2023/10/19 04:45:14;;;;;;;42.93;40.03;;;;;;;;;;5069486;28;20488;-78
2023/10/19 04:47:41;;;;;;;40.30;37.50;;;;;;;;;;5069922;28;20475;-79
2023/10/19 04:50:10;;;;;;;40.03;37.43;;;;;;;;;;5070285;28;20420;-78
2023/10/19 04:52:38;;;;;;;43.60;40.50;;;;;;;;;;5069986;28;20424;-78
2023/10/19 04:55:05;;;;;;;41.70;38.80;;;;;;;;;;5069424;28;20432;-77
2023/10/19 04:57:32;;;;;;;39.67;37.03;;;;;;;;;;5069786;28;20444;-78
2023/10/19 05:00:00;;;;;;;40.00;37.20;;;;;;;;;;5069954;28;20457;-78
2023/10/19 05:02:28;;;;;;;43.70;40.40;;;;;;;;;;5069561;28;20539;-78
2023/10/19 05:04:55;;;;;;;42.30;39.30;;;;;;;;;;5070318;28;20481;-78
2023/10/19 05:07:22;;;;;;;41.53;38.70;;;;;;;;;;5073560;28;20993;-79
2023/10/19 05:09:49;;;;;;;42.53;39.43;;;;;;;;;;5073500;28;20836;-77
2023/10/19 05:12:16;;;;;;;40.67;37.90;;;;;;;;;;5073437;28;20420;-78
2023/10/19 05:14:44;;;;;;;42.63;39.77;;;;;;;;;;5073211;28;20445;-79
2023/10/19 05:17:13;;;;;;;41.30;38.13;;;;;;;;;;5073779;28;20444;-78
2023/10/19 05:19:41;;;;;;;41.63;38.87;;;;;;;;;;5073609;28;20457;-77
2023/10/19 05:22:08;;;;;;;40.13;37.30;;;;;;;;;;5074188;28;20427;-78
2023/10/19 05:24:36;;;;;;;40.80;38.10;;;;;;;;;;5073056;28;20489;-79
2023/10/19 05:27:03;;;;;;;40.27;37.47;;;;;;;;;;5073714;28;20473;-78
2023/10/19 05:29:32;;;;;;;40.60;37.97;;;;;;;;;;5073295;28;20932;-79
2023/10/19 05:32:00;;;;;;;40.20;37.50;;;;;;;;;;5073619;28;20445;-78
2023/10/19 05:34:29;;;;;;;42.70;39.70;;;;;;;;;;5073144;28;20479;-77
2023/10/19 05:36:58;;;;;;;39.37;36.57;;;;;;;;;;5073677;28;20844;-78
2023/10/19 05:39:27;;;;;;;40.90;37.90;;;;;;;;;;5073866;28;20445;-78
2023/10/19 05:41:54;;;;;;;39.73;36.97;;;;;;;;;;5073431;28;20449;-78
2023/10/19 05:44:24;;;;;;;39.93;37.20;;;;;;;;;;5072278;28;20532;-79
2023/10/19 05:46:52;;;;;;;40.20;37.50;;;;;;;;;;5073263;28;20473;-79
2023/10/19 05:49:19;;;;;;;40.83;38.17;;;;;;;;;;5074236;28;20428;-77
2023/10/19 05:51:48;;;;;;;39.07;36.50;;;;;;;;;;5072808;28;20450;-76
2023/10/19 05:54:15;;;;;;;39.70;36.90;;;;;;;;;;5071198;28;20815;-76
2023/10/19 05:56:42;;;;;;;40.20;37.50;;;;;;;;;;5071230;28;20448;-77
2023/10/19 05:59:10;;;;;;;41.63;38.73;;;;;;;;;;5071419;28;20468;-76
2023/10/19 06:01:37;;;;;;;45.20;41.80;;;;;;;;;;5072375;28;20511;-76
2023/10/19 06:04:05;;;;;;;39.40;36.73;;;;;;;;;;5071649;28;20507;-76
2023/10/19 06:06:32;;;;;;;41.13;38.33;;;;;;;;;;5072142;28;21010;-77
2023/10/19 06:09:02;;;;;;;40.63;37.73;;;;;;;;;;5072719;28;20537;-76
2023/10/19 06:11:32;;;;;;;40.63;37.93;;;;;;;;;;5071505;28;20955;-76
2023/10/19 06:13:59;;;;;;;40.00;37.30;;;;;;;;;;5072046;28;20405;-75
2023/10/19 06:16:26;;;;;;;36.87;34.27;;;;;;;;;;5071482;28;20446;-77
2023/10/19 06:18:53;;;;;;;39.67;36.93;;;;;;;;;;5072375;28;20446;-76
2023/10/19 06:21:20;;;;;;;36.93;34.60;;;;;;;;;;5072377;28;20823;-75
2023/10/19 06:23:47;;;;;;;38.50;36.10;;;;;;;;;;5071526;28;20428;-76
2023/10/19 06:26:15;;;;;;;38.93;36.37;;;;;;;;;;5072073;28;20525;-75
2023/10/19 06:28:42;;;;;;;38.10;35.33;;;;;;;;;;5072827;28;20537;-75
2023/10/19 06:31:09;;;;;;;38.20;35.67;;;;;;;;;;5072254;28;20460;-76
2023/10/19 06:33:41;;;;;;;38.30;35.43;;;;;;;;;;5072130;28;20432;-77
2023/10/19 06:36:08;;;;;;;39.27;36.77;;;;;;;;;;5071494;28;20989;-76
2023/10/19 06:38:35;;;;;;;39.83;37.20;;;;;;;;;;5071780;28;20445;-76
2023/10/19 06:41:11;;;;;;;39.17;36.67;;;;;;;;;;5072115;28;20806;-76
2023/10/19 06:43:40;;;;;;;38.77;36.17;;;;;;;;;;5072019;28;20513;-76
2023/10/19 06:46:07;;;;;;;38.63;35.93;;;;;;;;;;5071424;28;20489;-78
2023/10/19 06:48:35;;;;;;;38.00;35.40;;;;;;;;;;5071779;28;20481;-75
2023/10/19 06:51:02;;;;;;;37.53;35.00;;;;;;;;;;5071895;28;20415;-76
2023/10/19 06:53:31;;;;;;;39.13;36.47;;;;;;;;;;5071862;28;20424;-75
2023/10/19 06:55:59;;;;;;;40.07;37.40;;;;;;;;;;5071684;28;20445;-75
2023/10/19 06:58:26;;;;;;;38.50;35.90;;;;;;;;;;5071320;28;20976;-75
2023/10/19 07:00:59;;;;;;;39.03;36.43;;;;;;;;;;5071960;28;20415;-76
2023/10/19 07:03:28;;;;;;;38.73;36.03;;;;;;;;;;5072218;28;20438;-76
2023/10/19 07:05:56;;;;;;;36.00;33.80;;;;;;;;;;5071228;28;20492;-75
2023/10/19 07:08:23;;;;;;;36.40;34.10;;;;;;;;;;5071895;28;20440;-75
2023/10/19 07:10:50;;;;;;;37.30;34.50;;;;;;;;;;5071480;28;20461;-76
2023/10/19 07:13:17;;;;;;;36.73;34.03;;;;;;;;;;5071828;28;20450;-76
2023/10/19 07:15:48;;;;;;;36.70;34.30;;;;;;;;;;5071053;28;20457;-74
2023/10/19 07:18:17;;;;;;;36.43;34.10;;;;;;;;;;5070806;28;20539;-75
2023/10/19 07:20:48;;;;;;;35.93;33.53;;;;;;;;;;5071393;28;20528;-76
2023/10/19 07:23:21;;;;;;;35.47;33.27;;;;;;;;;;5071153;28;20938;-77
2023/10/19 07:25:52;;;;;;;35.00;32.70;;;;;;;;;;5070650;28;20952;-75
2023/10/19 07:28:20;;;;;;;36.20;33.90;;;;;;;;;;5070590;28;20463;-75
2023/10/19 07:30:47;;;;;;;36.80;34.47;;;;;;;;;;5071002;28;20477;-76
2023/10/19 07:33:17;;;;;;;37.27;34.83;;;;;;;;;;5071516;28;20496;-76
2023/10/19 07:35:46;;;;;;;37.20;34.37;;;;;;;;;;5070753;28;20787;-76
2023/10/19 07:38:14;;;;;;;35.90;33.50;;;;;;;;;;5070979;28;20444;-75
2023/10/19 07:40:41;;;;;;;34.33;32.23;;;;;;;;;;5071440;28;20457;-76
2023/10/19 07:43:08;;;;;;;35.23;33.00;;;;;;;;;;5071381;28;20420;-76
2023/10/19 07:45:36;;;;;;;36.30;34.10;;;;;;;;;;5070539;28;20452;-76
2023/10/19 07:48:06;;;;;;;36.00;33.90;;;;;;;;;;5071244;28;20448;-76
2023/10/19 07:50:33;;;;;;;36.90;34.50;;;;;;;;;;5072025;28;20505;-78
2023/10/19 07:53:02;;;;;;;34.80;32.60;;;;;;;;;;5075411;28;20450;-80
2023/10/19 07:55:31;;;;;;;33.73;31.73;;;;;;;;;;5074813;28;20438;-78
2023/10/19 07:57:59;;;;;;;35.30;33.10;;;;;;;;;;5075152;28;20469;-77
2023/10/19 08:00:29;;;;;;;35.53;33.43;;;;;;;;;;5073036;28;20483;-79
2023/10/19 08:02:56;;;;;;;35.03;33.00;;;;;;;;;;5073639;28;20460;-78
2023/10/19 08:05:23;;;;;;;34.27;32.33;;;;;;;;;;5066600;28;20439;-82
2023/10/19 08:07:51;;;;;;;34.10;31.80;;;;;;;;;;5066827;28;20469;-87
2023/10/19 08:10:20;;;;;;;32.70;30.80;;;;;;;;;;5075461;28;20522;-85
2023/10/19 08:12:47;;;;;;;34.00;32.00;;;;;;;;;;5077323;28;20429;-76
2023/10/19 08:15:15;;;;;;;34.27;32.17;;;;;;;;;;5071993;28;20478;-78
2023/10/19 08:17:43;;;;;;;35.83;33.70;;;;;;;;;;5074583;28;21302;-83
2023/10/19 08:20:15;;;;;;;36.30;34.00;;;;;;;;;;5076543;28;20445;-85
2023/10/19 08:22:43;;;;;;;35.60;33.10;;;;;;;;;;5078735;28;20403;-83
2023/10/19 08:25:12;;;;;;;33.67;31.50;;;;;;;;;;5073696;28;20449;-77
2023/10/19 08:27:41;;;;;;;35.47;33.30;;;;;;;;;;5071371;28;20508;-78
2023/10/19 08:30:10;;;;;;;33.07;31.27;;;;;;;;;;5070900;28;20453;-78
2023/10/19 08:32:37;;;;;;;32.30;30.50;;;;;;;;;;5071017;28;21005;-77
2023/10/19 08:35:05;;;;;;;31.77;29.80;;;;;;;;;;5070808;28;20441;-77
2023/10/19 08:37:32;;;;;;;31.80;29.90;;;;;;;;;;5071045;28;20497;-77
2023/10/19 08:39:59;;;;;;;30.20;28.40;;;;;;;;;;5072269;28;20440;-82
2023/10/19 08:42:26;;;;;;;31.13;29.33;;;;;;;;;;5076996;28;20400;-82
2023/10/19 08:44:55;;;;;;;29.63;27.93;;;;;;;;;;5074541;28;20455;-76
2023/10/19 08:47:25;;;;;;;28.40;26.90;;;;;;;;;;5074829;28;20496;-75
2023/10/19 08:49:52;;;;;;;30.90;29.20;;;;;;;;;;5077805;28;20968;-76
2023/10/19 08:52:22;;;;;;;28.10;26.40;;;;;;;;;;5074906;28;20445;-76
2023/10/19 08:54:49;;;;;;;27.83;26.23;;;;;;;;;;5075751;28;20492;-80
2023/10/19 08:57:16;;;;;;;29.00;27.40;;;;;;;;;;5080637;28;20466;-79
2023/10/19 08:59:43;;;;;;;29.77;27.73;;;;;;;;;;5080354;28;20453;-81
2023/10/19 09:02:11;;;;;;;28.50;26.73;;;;;;;;;;5081306;28;20424;-80
2023/10/19 09:04:43;;;;;;;27.73;26.13;;;;;;;;;;5079903;28;20449;-80
2023/10/19 09:07:11;;;;;;;29.37;27.67;;;;;;;;;;5081802;28;20513;-80
2023/10/19 09:09:40;;;;;;;28.87;27.30;;;;;;;;;;5080812;28;20473;-80
2023/10/19 09:12:07;;;;;;;30.77;28.97;;;;;;;;;;5078761;28;20990;-78
2023/10/19 09:14:36;;;;;;;30.10;28.40;;;;;;;;;;5074512;28;20457;-77
2023/10/19 09:17:04;;;;;;;30.40;28.70;;;;;;;;;;5074527;28;20465;-82
2023/10/19 09:19:39;;;;;;;30.23;28.23;;;;;;;;;;5073716;28;20436;-77
2023/10/19 09:22:16;;;;;;;28.67;26.70;;;;;;;;;;5074179;28;20444;-77
2023/10/19 09:24:43;;;;;;;29.87;27.77;;;;;;;;;;5072459;28;20433;-78
2023/10/19 09:27:10;;;;;;;29.50;27.60;;;;;;;;;;5073306;28;20493;-77
2023/10/19 09:29:37;;;;;;;29.30;27.40;;;;;;;;;;5074271;28;20431;-77
2023/10/19 09:32:05;;;;;;;28.20;26.53;;;;;;;;;;5073772;28;20965;-76
2023/10/19 09:34:32;;;;;;;27.57;26.07;;;;;;;;;;5073355;28;20945;-76
2023/10/19 09:37:02;;;;;;;27.47;25.77;;;;;;;;;;5074137;28;20436;-77
2023/10/19 09:39:34;;;;;;;26.83;25.20;;;;;;;;;;5073994;28;20457;-78
2023/10/19 09:42:05;;;;;;;26.00;24.60;;;;;;;;;;5074094;28;20834;-76
2023/10/19 09:44:34;;;;;;;27.13;25.30;;;;;;;;;;5073231;28;21045;-76
2023/10/19 09:47:05;;;;;;;28.10;26.60;;;;;;;;;;5073961;28;20488;-76
2023/10/19 09:49:32;;;;;;;26.60;25.20;;;;;;;;;;5074051;28;20420;-77
2023/10/19 09:51:59;;;;;;;25.33;23.83;;;;;;;;;;5072924;28;20850;-77
2023/10/19 09:54:33;;;;;;;24.80;23.40;;;;;;;;;;5073454;28;20412;-77
2023/10/19 09:57:03;;;;;;;23.57;22.17;;;;;;;;;;5073982;28;20508;-77
2023/10/19 09:59:33;;;;;;;22.80;21.60;;;;;;;;;;5073947;28;20501;-77
2023/10/19 10:02:10;;;;;;;22.57;21.37;;;;;;;;;;5073767;28;20920;-76
2023/10/19 10:04:37;;;;;;;23.13;21.93;;;;;;;;;;5072971;28;20920;-77
2023/10/19 10:07:06;;;;;;;22.93;21.53;;;;;;;;;;5073714;28;20459;-77
2023/10/19 10:09:39;;;;;;;23.30;22.07;;;;;;;;;;5073415;28;20437;-78
2023/10/19 10:12:23;;;;;;;22.87;21.37;;;;;;;;;;5073249;28;20511;-77
2023/10/19 10:15:01;;;;;;;22.40;21.10;;;;;;;;;;5073010;28;20457;-78
2023/10/19 10:17:28;;;;;;;22.07;20.80;;;;;;;;;;5073297;28;20477;-76
2023/10/19 10:19:58;;;;;;;22.00;20.80;;;;;;;;;;5073407;28;20424;-76
2023/10/19 10:22:26;;;;;;;21.27;20.13;;;;;;;;;;5073055;28;20996;-76
2023/10/19 10:24:57;;;;;;;21.00;19.80;;;;;;;;;;5072654;28;20449;-77
2023/10/19 10:27:24;;;;;;;21.50;20.03;;;;;;;;;;5073174;28;20490;-77
2023/10/19 10:29:58;;;;;;;21.70;20.40;;;;;;;;;;5073187;28;20827;-76
2023/10/19 10:32:44;;;;;;;22.10;20.90;;;;;;;;;;5072944;28;20762;-77
2023/10/19 10:35:11;;;;;;;21.33;20.07;;;;;;;;;;5072042;28;20800;-78
2023/10/19 10:37:39;;;;;;;20.70;19.50;;;;;;;;;;5072894;28;20439;-77
2023/10/19 10:40:15;;;;;;;20.27;19.17;;;;;;;;;;5072947;28;20445;-77
2023/10/19 10:42:43;;;;;;;21.10;19.70;;;;;;;;;;5072763;28;20541;-76
2023/10/19 10:45:21;;;;;;;20.83;19.63;;;;;;;;;;5072375;28;20424;-76
2023/10/19 10:47:49;;;;;;;19.50;18.27;;;;;;;;;;5072699;28;20550;-77
2023/10/19 10:50:21;;;;;;;20.07;18.97;;;;;;;;;;5072745;28;20455;-79
2023/10/19 10:52:48;;;;;;;19.50;18.20;;;;;;;;;;5072769;28;20509;-77
2023/10/19 10:55:16;;;;;;;21.70;20.13;;;;;;;;;;5071772;28;20941;-76
2023/10/19 10:57:44;;;;;;;20.53;19.53;;;;;;;;;;5072518;28;20527;-76
2023/10/19 11:00:15;;;;;;;19.87;18.97;;;;;;;;;;5072326;28;20432;-78
2023/10/19 11:02:43;;;;;;;20.77;19.37;;;;;;;;;;5072132;28;20436;-78
2023/10/19 11:05:11;;;;;;;19.60;18.50;;;;;;;;;;5071773;28;20511;-77
2023/10/19 11:07:38;;;;;;;18.43;17.50;;;;;;;;;;5071978;28;20574;-77
2023/10/19 11:10:06;;;;;;;19.83;18.70;;;;;;;;;;5072200;28;20945;-77
2023/10/19 11:12:34;;;;;;;19.67;18.67;;;;;;;;;;5072632;28;20404;-77
2023/10/19 11:15:09;;;;;;;20.73;19.00;;;;;;;;;;5071788;28;20428;-77
2023/10/19 11:17:43;;;;;;;20.27;18.90;;;;;;;;;;5072091;28;20872;-78
2023/10/19 11:20:13;;;;;;;19.67;18.57;;;;;;;;;;5071993;28;20458;-77
2023/10/19 11:22:49;;;;;;;19.67;18.40;;;;;;;;;;5072203;28;20979;-77
2023/10/19 11:25:19;;;;;;;20.03;18.60;;;;;;;;;;5070654;28;20404;-77
2023/10/19 11:27:48;;;;;;;19.77;18.67;;;;;;;;;;5071693;28;20548;-77
2023/10/19 11:30:15;;;;;;;19.60;18.50;;;;;;;;;;5071782;28;20523;-77
2023/10/19 11:32:44;;;;;;;19.30;18.20;;;;;;;;;;5071810;28;20826;-77
2023/10/19 11:35:12;;;;;;;19.87;18.87;;;;;;;;;;5071367;28;20805;-77
2023/10/19 11:37:48;;;;;;;19.67;18.47;;;;;;;;;;5071366;28;20975;-76
2023/10/19 11:40:16;;;;;;;20.67;19.60;;;;;;;;;;5071815;28;20428;-78
2023/10/19 11:42:43;;;;;;;19.80;18.73;;;;;;;;;;5071621;28;20442;-76
2023/10/19 11:45:12;;;;;;;20.80;19.73;;;;;;;;;;5071172;28;20424;-77
2023/10/19 11:47:39;;;;;;;19.07;17.73;;;;;;;;;;5071241;28;20575;-76
2023/10/19 11:50:07;;;;;;;18.50;17.60;;;;;;;;;;5071390;28;20806;-76
2023/10/19 11:52:34;;;;;;;19.10;17.90;;;;;;;;;;5071620;28;20507;-77
2023/10/19 11:55:01;;;;;;;19.90;18.70;;;;;;;;;;5071284;28;20451;-78
2023/10/19 11:57:28;;;;;;;20.87;19.40;;;;;;;;;;5071405;28;20490;-78
2023/10/19 11:59:57;;;;;;;20.13;19.13;;;;;;;;;;5071586;28;20420;-77
2023/10/19 12:02:26;;;;;;;18.97;18.07;;;;;;;;;;5071518;28;20463;-77
2023/10/19 12:04:53;;;;;;;19.47;18.40;;;;;;;;;;5070467;28;20472;-76
2023/10/19 12:07:21;;;;;;;19.20;18.20;;;;;;;;;;5071234;28;20591;-78
2023/10/19 12:09:49;;;;;;;19.93;18.80;;;;;;;;;;5071110;28;20457;-77
2023/10/19 12:12:16;;;;;;;19.77;18.77;;;;;;;;;;5070986;28;20452;-76
2023/10/19 12:14:43;;;;;;;20.27;19.00;;;;;;;;;;5069910;28;20928;-77
2023/10/19 12:17:11;;;;;;;20.67;19.43;;;;;;;;;;5071277;28;20451;-76
2023/10/19 12:19:40;;;;;;;20.40;19.13;;;;;;;;;;5071316;28;20431;-78
2023/10/19 12:22:08;;;;;;;20.40;19.20;;;;;;;;;;5070925;28;20517;-77
2023/10/19 12:24:35;;;;;;;19.17;18.17;;;;;;;;;;5070673;28;20460;-76
2023/10/19 12:27:02;;;;;;;19.63;18.57;;;;;;;;;;5070350;28;20496;-76
2023/10/19 12:29:31;;;;;;;20.70;19.30;;;;;;;;;;5071018;28;20445;-78
2023/10/19 12:31:58;;;;;;;21.37;20.20;;;;;;;;;;5070875;28;20458;-78
2023/10/19 12:34:29;;;;;;;20.47;19.23;;;;;;;;;;5070455;28;20499;-77
2023/10/19 12:36:58;;;;;;;20.50;19.10;;;;;;;;;;5070892;28;20465;-76
2023/10/19 12:39:43;;;;;;;20.00;18.80;;;;;;;;;;5070828;28;20953;-77
2023/10/19 12:42:10;;;;;;;22.00;20.27;;;;;;;;;;5070984;28;20405;-77
2023/10/19 12:44:40;;;;;;;20.23;19.03;;;;;;;;;;5070535;28;20509;-77
2023/10/19 12:47:09;;;;;;;22.77;21.10;;;;;;;;;;5070703;28;20969;-77
2023/10/19 12:49:36;;;;;;;20.80;19.40;;;;;;;;;;5071117;28;20453;-77
2023/10/19 12:52:06;;;;;;;22.07;20.57;;;;;;;;;;5071239;28;20441;-77
2023/10/19 12:54:34;;;;;;;20.63;19.37;;;;;;;;;;5070390;28;20441;-76
2023/10/19 12:57:03;;;;;;;21.40;19.90;;;;;;;;;;5070793;28;20465;-79
2023/10/19 12:59:30;;;;;;;22.00;20.37;;;;;;;;;;5070515;28;20445;-76
2023/10/19 13:01:59;;;;;;;21.80;20.13;;;;;;;;;;5070948;28;20428;-78
2023/10/19 13:04:29;;;;;;;23.77;22.27;;;;;;;;;;5070084;28;20526;-77
2023/10/19 13:06:57;;;;;;;20.10;18.60;;;;;;;;;;5070359;28;20530;-78
2023/10/19 13:09:30;;;;;;;21.10;19.80;;;;;;;;;;5070768;28;20462;-76
2023/10/19 13:11:58;;;;;;;20.03;18.90;;;;;;;;;;5070600;28;20401;-77
2023/10/19 13:14:25;;;;;;;21.10;19.73;;;;;;;;;;5070049;28;20453;-78
2023/10/19 13:16:52;;;;;;;19.73;18.57;;;;;;;;;;5070684;28;20849;-76
2023/10/19 13:19:20;;;;;;;19.60;18.30;;;;;;;;;;5070323;28;20424;-76
2023/10/19 13:21:49;;;;;;;20.37;18.70;;;;;;;;;;5070357;28;20446;-76
2023/10/19 13:24:16;;;;;;;20.03;18.43;;;;;;;;;;5069990;28;20449;-76
2023/10/19 13:26:46;;;;;;;19.57;18.47;;;;;;;;;;5071092;28;20787;-76
2023/10/19 13:29:14;;;;;;;19.90;18.77;;;;;;;;;;5074346;28;20426;-77
2023/10/19 13:31:44;;;;;;;21.80;20.37;;;;;;;;;;5074070;28;20537;-77
2023/10/19 13:34:13;;;;;;;19.80;18.60;;;;;;;;;;5073252;28;20848;-77
2023/10/19 13:36:40;;;;;;;19.87;18.37;;;;;;;;;;5074032;28;20450;-77
2023/10/19 13:39:12;;;;;;;19.50;18.20;;;;;;;;;;5074184;28;20457;-77
2023/10/19 13:41:39;;;;;;;19.77;18.33;;;;;;;;;;5074378;28;21059;-77
2023/10/19 13:44:08;;;;;;;20.30;18.80;;;;;;;;;;5073285;28;20831;-78
2023/10/19 13:46:35;;;;;;;18.50;17.40;;;;;;;;;;5073702;28;20436;-76
2023/10/19 13:49:05;;;;;;;20.03;18.60;;;;;;;;;;5073966;28;20572;-77
2023/10/19 13:51:33;;;;;;;20.30;18.83;;;;;;;;;;5073892;28;20457;-77
2023/10/19 13:54:00;;;;;;;20.13;18.53;;;;;;;;;;5073412;28;20445;-77
2023/10/19 13:56:27;;;;;;;19.97;18.13;;;;;;;;;;5073860;28;20491;-77
2023/10/19 13:58:54;;;;;;;19.83;18.40;;;;;;;;;;5074347;28;20529;-77
2023/10/19 14:01:25;;;;;;;19.03;18.00;;;;;;;;;;5074147;28;20798;-77
2023/10/19 14:03:54;;;;;;;21.80;20.07;;;;;;;;;;5073164;28;20905;-76
2023/10/19 14:06:22;;;;;;;22.27;20.77;;;;;;;;;;5073618;28;20424;-78
2023/10/19 14:08:49;;;;;;;19.43;18.27;;;;;;;;;;5073131;28;20543;-76
2023/10/19 14:11:16;;;;;;;19.03;17.97;;;;;;;;;;5073343;28;20454;-77
2023/10/19 14:13:43;;;;;;;19.77;18.43;;;;;;;;;;5073413;28;20446;-78
2023/10/19 14:16:10;;;;;;;19.13;18.13;;;;;;;;;;5072828;28;20937;-77
2023/10/19 14:18:39;;;;;;;20.03;18.83;;;;;;;;;;5073527;28;20448;-77
2023/10/19 14:21:13;;;;;;;19.50;18.30;;;;;;;;;;5073196;28;20541;-77
2023/10/19 14:23:41;;;;;;;20.53;19.10;;;;;;;;;;5073216;28;20449;-77
2023/10/19 14:26:11;;;;;;;20.50;19.20;;;;;;;;;;5071151;28;20421;-77
2023/10/19 14:28:40;;;;;;;18.77;17.63;;;;;;;;;;5073082;28;20539;-76